Time;durP1;ratioP1;P1;durP2;ratioP2;P2;SDS_P1;SDS_P2;PMS_P1;PMS_P2;Temp;Humidity;BMP_temperature;BMP_pressure;BME280_temperature;BME280_humidity;BME280_pressure;Samples;Min_cycle;Max_cycle;Signal;HPM_P1;HPM_P2
2023/08/12 00:01:10;;;;;;;1.87;0.85;;;;;;;19.21;53.15;100223.00;4445435;32;34025;-83
2023/08/12 00:03:41;;;;;;;1.33;0.70;;;;;;;19.06;53.63;100229.75;4441304;32;33130;-83
2023/08/12 00:06:10;;;;;;;0.57;0.57;;;;;;;19.21;53.31;100229.16;4439069;32;33663;-85
2023/08/12 00:08:39;;;;;;;0.60;0.50;;;;;;;19.19;53.35;100228.34;4450745;32;34663;-84
2023/08/12 00:11:08;;;;;;;0.93;0.80;;;;;;;19.22;53.20;100225.59;4449734;32;33751;-85
2023/08/12 00:13:37;;;;;;;0.52;0.52;;;;;;;19.28;52.86;100221.84;4445223;32;33421;-83
2023/08/12 00:16:06;;;;;;;1.73;0.65;;;;;;;19.19;53.14;100223.94;4441401;32;33254;-84
2023/08/12 00:18:37;;;;;;;;;;;;;;;19.11;53.59;100220.78;4443069;32;34783;-84
2023/08/12 00:21:09;;;;;;;1.02;1.00;;;;;;;19.13;53.30;100218.06;4447468;32;34579;-83
2023/08/12 00:23:40;;;;;;;0.50;0.50;;;;;;;19.21;53.30;100223.87;4444128;32;33070;-84
2023/08/12 00:26:09;;;;;;;0.70;0.70;;;;;;;19.00;53.91;100216.84;4441826;32;33708;-83
2023/08/12 00:28:38;;;;;;;0.60;0.60;;;;;;;19.12;53.61;100219.84;4443647;32;34244;-83
2023/08/12 00:31:06;;;;;;;0.62;0.60;;;;;;;18.95;53.85;100214.41;4448400;32;33637;-85
2023/08/12 00:33:35;;;;;;;0.50;0.50;;;;;;;19.15;53.41;100218.84;4446287;32;34256;-85
2023/08/12 00:36:04;;;;;;;3.50;1.62;;;;;;;19.21;53.27;100215.12;4438233;32;34369;-83
2023/08/12 00:38:34;;;;;;;0.75;0.65;;;;;;;19.18;53.22;100219.59;4438513;32;33318;-83
2023/08/12 00:41:04;;;;;;;0.62;0.62;;;;;;;19.17;53.07;100215.25;4441891;32;33099;-85
2023/08/12 00:43:33;;;;;;;0.60;0.57;;;;;;;19.28;52.63;100219.22;4450195;32;33594;-83
2023/08/12 00:46:02;;;;;;;0.57;0.52;;;;;;;19.17;53.15;100215.25;4444530;32;33643;-83
2023/08/12 00:48:33;;;;;;;0.55;0.47;;;;;;;19.13;53.27;100208.38;4440056;32;34573;-85
2023/08/12 00:51:03;;;;;;;1.00;0.60;;;;;;;19.13;53.26;100211.03;4434183;32;34509;-85
2023/08/12 00:53:32;;;;;;;0.60;0.53;;;;;;;19.29;52.85;100210.41;4450411;32;33195;-84
2023/08/12 00:56:02;;;;;;;1.00;0.57;;;;;;;18.97;53.84;100209.94;4443736;32;32947;-83
2023/08/12 00:58:31;;;;;;;0.75;0.70;;;;;;;19.05;53.79;100207.84;4445590;32;35230;-84
2023/08/12 01:01:01;;;;;;;1.75;0.70;;;;;;;18.80;54.42;100204.47;4443661;32;33048;-82
2023/08/12 01:03:30;;;;;;;0.80;0.62;;;;;;;18.84;54.38;100206.91;4442124;32;33352;-84
2023/08/12 01:05:58;;;;;;;1.40;1.00;;;;;;;18.96;54.08;100210.84;4448446;32;33870;-83
2023/08/12 01:08:30;;;;;;;0.60;0.60;;;;;;;18.80;54.42;100201.84;4445165;32;34451;-83
2023/08/12 01:11:06;;;;;;;0.62;0.62;;;;;;;18.69;54.83;100199.59;4436385;32;33027;-84
2023/08/12 01:13:43;;;;;;;0.68;0.68;;;;;;;18.71;54.71;100198.62;4444323;32;34140;-83
2023/08/12 01:16:14;;;;;;;0.65;0.65;;;;;;;18.68;54.68;100204.00;4444039;32;33585;-83
2023/08/12 01:18:43;;;;;;;;;;;;;;;18.87;54.13;100203.31;4449164;32;34728;-83
2023/08/12 01:21:17;;;;;;;0.88;0.60;;;;;;;18.72;54.34;100205.59;4448744;32;34663;-84
2023/08/12 01:23:48;;;;;;;0.50;0.50;;;;;;;18.67;54.52;100199.66;4445238;32;33263;-84
2023/08/12 01:26:16;;;;;;;1.75;0.70;;;;;;;18.58;54.99;100204.41;4444909;32;33414;-84
2023/08/12 01:28:45;;;;;;;0.90;0.65;;;;;;;18.66;54.49;100208.47;4451979;32;33709;-84
2023/08/12 01:31:20;;;;;;;0.82;0.47;;;;;;;18.55;54.71;100210.63;4444139;32;33616;-84
2023/08/12 01:33:53;;;;;;;0.75;0.65;;;;;;;18.75;54.27;100208.12;4444434;32;33488;-84
2023/08/12 01:36:22;;;;;;;0.60;0.50;;;;;;;18.56;54.74;100212.38;4444891;32;33945;-84
2023/08/12 01:38:54;;;;;;;0.98;0.60;;;;;;;18.62;54.87;100213.91;4441987;32;34576;-83
2023/08/12 01:41:24;;;;;;;0.50;0.50;;;;;;;18.54;55.26;100209.78;4447653;32;33488;-84
2023/08/12 01:43:53;;;;;;;0.70;0.70;;;;;;;18.60;54.99;100203.44;4446105;32;33811;-84
2023/08/12 01:46:22;;;;;;;0.60;0.50;;;;;;;18.50;55.38;100207.31;4447238;32;33650;-84
2023/08/12 01:48:52;;;;;;;2.22;0.98;;;;;;;18.45;55.56;100217.16;4446906;32;33982;-84
2023/08/12 01:51:21;;;;;;;1.25;0.70;;;;;;;18.60;55.20;100216.56;4450557;32;34494;-84
2023/08/12 01:53:50;;;;;;;1.30;0.80;;;;;;;18.50;55.68;100217.84;4444884;32;33524;-85
2023/08/12 01:56:20;;;;;;;0.65;0.65;;;;;;;17.58;59.21;100223.69;4443676;32;33596;-84
2023/08/12 01:58:49;;;;;;;0.82;0.60;;;;;;;18.36;55.96;100215.72;4445718;32;33939;-83
2023/08/12 02:01:18;;;;;;;0.93;0.68;;;;;;;17.72;59.02;100224.09;4447215;32;33504;-85
2023/08/12 02:03:47;;;;;;;0.77;0.68;;;;;;;17.86;58.13;100221.88;4445916;32;33121;-84
2023/08/12 02:06:16;;;;;;;0.93;0.60;;;;;;;17.39;60.34;100226.91;4441876;32;33457;-84
2023/08/12 02:08:45;;;;;;;0.73;0.70;;;;;;;17.77;58.90;100216.91;4444524;32;32183;-85
2023/08/12 02:11:14;;;;;;;0.77;0.70;;;;;;;17.95;58.68;100227.72;4444470;32;33488;-83
2023/08/12 02:13:44;;;;;;;0.88;0.55;;;;;;;18.21;57.25;100222.38;4451540;32;33220;-83
2023/08/12 02:16:13;;;;;;;0.70;0.70;;;;;;;18.20;57.51;100214.59;4443207;32;33655;-84
2023/08/12 02:18:42;;;;;;;0.50;0.50;;;;;;;18.25;56.95;100217.91;4444368;32;33720;-84
2023/08/12 02:21:11;;;;;;;0.62;0.60;;;;;;;18.22;57.23;100223.22;4444321;32;34983;-84
2023/08/12 02:23:40;;;;;;;0.85;0.70;;;;;;;18.34;56.63;100218.41;4449316;32;33634;-84
2023/08/12 02:26:09;;;;;;;1.15;0.80;;;;;;;18.42;56.57;100219.91;4448925;32;33834;-83
2023/08/12 02:28:38;;;;;;;1.77;0.70;;;;;;;18.27;56.77;100214.31;4446087;32;34465;-84
2023/08/12 02:31:08;;;;;;;0.82;0.75;;;;;;;18.24;57.09;100210.91;4441406;32;34314;-84
2023/08/12 02:33:37;;;;;;;0.50;0.50;;;;;;;18.38;56.71;100210.41;4443350;32;33743;-84
2023/08/12 02:36:06;;;;;;;0.47;0.47;;;;;;;18.28;56.77;100213.37;4449496;32;33514;-85
2023/08/12 02:38:34;;;;;;;0.85;0.80;;;;;;;18.10;57.18;100214.06;4444646;32;33483;-84
2023/08/12 02:41:03;;;;;;;0.50;0.50;;;;;;;18.20;56.91;100215.44;4444537;32;33408;-84
2023/08/12 02:43:35;;;;;;;0.88;0.62;;;;;;;18.03;57.53;100202.06;4443505;32;34250;-84
2023/08/12 02:46:04;;;;;;;1.98;1.02;;;;;;;17.76;58.19;100217.84;4448513;32;34408;-84
2023/08/12 02:48:34;;;;;;;0.50;0.50;;;;;;;17.91;57.98;100214.69;4442800;32;33895;-83
2023/08/12 02:51:03;;;;;;;1.58;1.20;;;;;;;17.88;58.12;100211.34;4441572;32;34310;-83
2023/08/12 02:53:32;;;;;;;0.68;0.68;;;;;;;17.89;58.16;100205.16;4437702;32;33062;-84
2023/08/12 02:56:00;;;;;;;1.25;0.82;;;;;;;17.91;58.63;100204.19;4442220;32;33278;-84
2023/08/12 02:58:29;;;;;;;2.47;0.70;;;;;;;18.00;58.02;100202.16;4449957;32;34537;-83
2023/08/12 03:00:58;;;;;;;1.37;0.70;;;;;;;17.67;59.09;100207.66;4443548;32;33580;-84
2023/08/12 03:03:27;;;;;;;0.70;0.70;;;;;;;17.70;59.18;100204.91;4444333;32;33103;-83
2023/08/12 03:05:57;;;;;;;1.27;0.70;;;;;;;17.78;58.98;100212.50;4443572;32;34584;-84
2023/08/12 03:08:26;;;;;;;1.23;0.70;;;;;;;17.58;59.66;100206.19;4448896;32;33926;-83
2023/08/12 03:11:00;;;;;;;0.62;0.62;;;;;;;17.49;59.94;100203.84;4444129;32;34613;-83
2023/08/12 03:13:29;;;;;;;1.40;1.17;;;;;;;17.49;60.08;100201.25;4445530;32;33401;-83
2023/08/12 03:15:58;;;;;;;0.75;0.75;;;;;;;17.70;59.38;100207.53;4441744;32;34412;-84
2023/08/12 03:18:27;;;;;;;0.70;0.70;;;;;;;17.54;59.86;100201.97;4445443;32;33599;-83
2023/08/12 03:20:57;;;;;;;1.77;0.80;;;;;;;17.51;60.12;100206.44;4451118;32;34450;-83
2023/08/12 03:23:27;;;;;;;1.30;0.88;;;;;;;17.65;59.45;100204.22;4443975;32;33854;-84
2023/08/12 03:25:57;;;;;;;1.08;0.85;;;;;;;17.65;59.29;100205.06;4445461;32;34304;-83
2023/08/12 03:28:26;;;;;;;0.60;0.60;;;;;;;17.54;59.64;100208.94;4444368;32;33621;-83
2023/08/12 03:30:55;;;;;;;0.60;0.60;;;;;;;17.41;60.03;100209.38;4440733;32;34130;-84
2023/08/12 03:33:24;;;;;;;0.70;0.70;;;;;;;17.44;60.32;100205.78;4443932;32;33879;-85
2023/08/12 03:35:53;;;;;;;0.50;0.50;;;;;;;17.44;60.03;100211.88;4443215;32;34366;-84
2023/08/12 03:38:24;;;;;;;1.08;0.70;;;;;;;17.36;60.51;100215.69;4441747;32;33670;-84
2023/08/12 03:40:53;;;;;;;0.85;0.70;;;;;;;17.57;59.89;100212.34;4449802;32;34395;-85
2023/08/12 03:43:22;;;;;;;1.95;0.85;;;;;;;17.52;60.09;100216.91;4449729;32;33196;-84
2023/08/12 03:45:51;;;;;;;0.50;0.50;;;;;;;17.57;59.92;100222.84;4444232;32;33864;-83
2023/08/12 03:48:20;;;;;;;1.02;0.80;;;;;;;17.52;60.17;100224.75;4444941;32;33560;-84
2023/08/12 03:50:50;;;;;;;1.00;1.00;;;;;;;17.49;60.32;100233.59;4445400;32;33826;-83
2023/08/12 03:53:18;;;;;;;0.60;0.60;;;;;;;17.49;60.48;100232.72;4448852;32;33792;-84
2023/08/12 03:55:49;;;;;;;0.80;0.80;;;;;;;17.52;60.51;100227.37;4445144;32;33419;-84
2023/08/12 03:58:18;;;;;;;1.03;0.87;;;;;;;17.51;60.59;100222.19;4445041;32;33222;-84
2023/08/12 04:00:47;;;;;;;1.80;1.67;;;;;;;17.65;59.89;100233.94;4448963;32;33703;-84
2023/08/12 04:03:16;;;;;;;1.25;0.85;;;;;;;17.55;60.27;100224.66;4451701;32;34139;-84
2023/08/12 04:05:49;;;;;;;1.00;0.80;;;;;;;17.65;60.14;100227.81;4440437;32;34013;-84
2023/08/12 04:08:19;;;;;;;0.68;0.55;;;;;;;17.70;60.11;100228.53;4445936;32;34435;-84
2023/08/12 04:10:49;;;;;;;0.50;0.50;;;;;;;17.60;60.60;100232.38;4444865;32;33495;-84
2023/08/12 04:13:19;;;;;;;1.10;1.00;;;;;;;17.76;60.20;100227.44;4445362;32;32523;-85
2023/08/12 04:15:50;;;;;;;1.52;0.65;;;;;;;17.83;59.89;100232.50;4449224;32;32957;-83
2023/08/12 04:18:19;;;;;;;0.80;0.75;;;;;;;17.86;59.87;100239.41;4444682;32;35801;-84
2023/08/12 04:20:51;;;;;;;1.37;0.82;;;;;;;17.90;59.64;100233.13;4443741;32;33519;-83
2023/08/12 04:23:19;;;;;;;0.73;0.73;;;;;;;17.87;59.76;100235.84;4443018;32;34002;-83
2023/08/12 04:25:50;;;;;;;1.45;0.80;;;;;;;17.89;60.10;100237.50;4448353;32;33487;-85
2023/08/12 04:28:19;;;;;;;0.82;0.80;;;;;;;17.93;60.22;100240.91;4447245;32;34775;-83
2023/08/12 04:30:50;;;;;;;0.70;0.70;;;;;;;18.31;58.52;100242.19;4445378;32;33026;-83
2023/08/12 04:33:20;;;;;;;0.82;0.60;;;;;;;18.26;59.08;100237.97;4443393;32;33090;-83
2023/08/12 04:35:50;;;;;;;0.70;0.70;;;;;;;18.37;59.32;100242.84;4443246;32;34681;-83
2023/08/12 04:38:19;;;;;;;0.85;0.80;;;;;;;18.34;59.42;100247.31;4449564;32;34637;-84
2023/08/12 04:40:49;;;;;;;0.60;0.60;;;;;;;18.37;59.78;100248.13;4444308;32;33688;-84
2023/08/12 04:43:19;;;;;;;0.90;0.80;;;;;;;18.51;59.73;100240.59;4443131;32;30777;-84
2023/08/12 04:45:48;;;;;;;0.70;0.57;;;;;;;18.84;59.26;100248.13;4442803;32;33821;-83
2023/08/12 04:48:18;;;;;;;0.80;0.70;;;;;;;18.83;59.19;100246.44;4448951;32;33143;-85
2023/08/12 04:50:47;;;;;;;1.08;0.68;;;;;;;18.84;59.34;100245.50;4444793;32;35007;-83
2023/08/12 04:53:18;;;;;;;1.58;0.90;;;;;;;18.92;59.12;100249.56;4443361;32;34004;-84
2023/08/12 04:55:52;;;;;;;0.73;0.70;;;;;;;18.96;59.15;100251.13;4443369;32;33622;-84
2023/08/12 04:58:20;;;;;;;0.52;0.52;;;;;;;19.12;58.62;100254.03;4442589;32;33919;-83
2023/08/12 05:00:52;;;;;;;0.85;0.65;;;;;;;19.19;58.61;100254.66;4449852;32;34347;-83
2023/08/12 05:03:20;;;;;;;;;;;;;;;19.20;58.60;100253.72;4431172;32;32824;-84
2023/08/12 05:05:53;;;;;;;0.60;0.60;;;;;;;19.47;56.34;100254.37;4441924;32;33749;-84
2023/08/12 05:08:22;;;;;;;0.40;0.35;;;;;;;19.62;55.94;100258.19;4443979;32;33728;-85
2023/08/12 05:10:52;;;;;;;2.55;0.60;;;;;;;20.36;53.55;100258.50;4448609;32;34111;-84
2023/08/12 05:13:23;;;;;;;0.82;0.62;;;;;;;21.11;51.65;100248.94;4446409;32;33805;-83
2023/08/12 05:15:52;;;;;;;0.60;0.60;;;;;;;22.08;49.53;100255.56;4444035;32;33140;-85
2023/08/12 05:18:23;;;;;;;0.75;0.57;;;;;;;22.91;47.53;100247.69;4444175;32;33496;-84
2023/08/12 05:20:52;;;;;;;0.70;0.52;;;;;;;23.69;46.42;100250.31;4443454;32;33919;-85
2023/08/12 05:23:21;;;;;;;1.37;0.70;;;;;;;24.38;45.26;100248.84;4447480;32;33239;-85
2023/08/12 05:25:52;;;;;;;0.70;0.55;;;;;;;25.01;44.22;100250.19;4443855;32;34534;-86
2023/08/12 05:28:38;;;;;;;2.12;0.57;;;;;;;25.25;42.74;100248.66;4443570;32;35001;-84
2023/08/12 05:31:07;;;;;;;1.02;0.62;;;;;;;25.70;41.97;100253.66;4442106;32;34214;-84
2023/08/12 05:33:36;;;;;;;0.50;0.50;;;;;;;25.84;41.29;100250.94;4443371;32;33149;-84
2023/08/12 05:36:05;;;;;;;0.60;0.60;;;;;;;25.86;40.74;100249.06;4449467;32;33906;-84
2023/08/12 05:38:34;;;;;;;0.35;0.35;;;;;;;26.11;40.95;100250.03;4445812;32;34409;-84
2023/08/12 05:41:07;;;;;;;1.42;0.70;;;;;;;26.02;41.13;100261.28;4444378;32;34824;-85
2023/08/12 05:43:36;;;;;;;0.90;0.50;;;;;;;25.95;41.32;100248.44;4443529;32;33241;-86
2023/08/12 05:46:04;;;;;;;0.85;0.40;;;;;;;24.98;42.14;100251.25;4450804;32;33622;-85
2023/08/12 05:48:33;;;;;;;0.80;0.57;;;;;;;25.36;41.90;100249.75;4445916;32;34870;-85
2023/08/12 05:51:02;;;;;;;1.62;0.73;;;;;;;24.74;43.13;100252.81;4445412;32;33879;-85
2023/08/12 05:53:32;;;;;;;0.70;0.50;;;;;;;24.65;42.88;100251.63;4444973;32;33024;-84
2023/08/12 05:56:00;;;;;;;0.47;0.47;;;;;;;24.30;43.40;100253.75;4444231;32;33822;-84
2023/08/12 05:58:31;;;;;;;0.98;0.90;;;;;;;24.41;43.02;100249.50;4449592;32;33541;-84
2023/08/12 06:01:00;;;;;;;0.70;0.50;;;;;;;24.44;42.96;100249.31;4445721;32;33098;-85
2023/08/12 06:03:29;;;;;;;0.82;0.55;;;;;;;24.33;43.02;100257.09;4444319;32;33086;-84
2023/08/12 06:05:58;;;;;;;0.65;0.50;;;;;;;23.95;43.83;100247.00;4445816;32;34321;-85
2023/08/12 06:08:27;;;;;;;0.88;0.80;;;;;;;23.43;44.70;100253.53;4443362;32;34106;-86
2023/08/12 06:10:56;;;;;;;1.42;0.80;;;;;;;23.32;44.99;100252.47;4443624;32;34840;-84
2023/08/12 06:13:25;;;;;;;0.32;0.32;;;;;;;23.03;46.28;100240.84;4443703;32;33936;-84
2023/08/12 06:15:55;;;;;;;0.95;0.60;;;;;;;22.54;47.76;100244.37;4444590;32;33492;-84
2023/08/12 06:18:24;;;;;;;1.12;0.70;;;;;;;22.52;48.06;100246.25;4449761;32;32781;-84
2023/08/12 06:20:53;;;;;;;1.30;0.60;;;;;;;22.62;47.54;100251.91;4448717;32;33722;-83
2023/08/12 06:23:22;;;;;;;0.35;0.35;;;;;;;22.55;48.04;100246.94;4444017;32;32887;-83
2023/08/12 06:25:55;;;;;;;0.88;0.65;;;;;;;22.42;48.26;100250.31;4445092;32;32258;-84
2023/08/12 06:28:23;;;;;;;1.25;0.82;;;;;;;22.10;49.34;100258.97;4446745;32;33688;-85
2023/08/12 06:30:52;;;;;;;1.58;0.90;;;;;;;22.23;49.72;100258.38;4435389;32;33517;-83
2023/08/12 06:33:23;;;;;;;0.50;0.50;;;;;;;22.11;50.28;100258.06;4444653;32;33344;-84
2023/08/12 06:35:52;;;;;;;1.93;0.60;;;;;;;22.20;50.09;100263.78;4447740;32;33610;-84
2023/08/12 06:38:20;;;;;;;0.75;0.70;;;;;;;22.57;49.29;100247.72;4446565;32;34096;-83
2023/08/12 06:40:49;;;;;;;1.17;0.65;;;;;;;22.31;49.93;100256.19;4436763;32;34673;-84
2023/08/12 06:43:18;;;;;;;1.58;0.90;;;;;;;22.34;49.67;100253.38;4438633;32;33838;-85
2023/08/12 06:45:47;;;;;;;1.35;0.70;;;;;;;22.14;49.79;100252.62;4444737;32;33126;-85
2023/08/12 06:48:17;;;;;;;1.23;0.70;;;;;;;21.94;49.99;100252.81;4445660;32;34505;-84
2023/08/12 06:50:47;;;;;;;0.80;0.80;;;;;;;22.48;49.27;100239.44;4444535;32;34023;-84
2023/08/12 06:53:15;;;;;;;0.50;0.50;;;;;;;22.50;49.08;100237.56;4452064;32;33316;-83
2023/08/12 06:55:45;;;;;;;1.27;0.52;;;;;;;22.43;48.40;100241.47;4444362;32;34611;-85
2023/08/12 06:58:14;;;;;;;0.75;0.60;;;;;;;22.62;48.18;100242.19;4444025;32;33170;-84
2023/08/12 07:00:43;;;;;;;0.65;0.60;;;;;;;22.55;48.70;100246.09;4430934;32;33262;-84
2023/08/12 07:03:12;;;;;;;1.33;0.60;;;;;;;22.53;48.07;100250.63;4448628;32;33442;-84
2023/08/12 07:05:41;;;;;;;0.50;0.50;;;;;;;22.69;47.54;100250.63;4443230;32;33588;-84
2023/08/12 07:08:11;;;;;;;0.88;0.65;;;;;;;23.03;46.80;100251.44;4443962;32;33451;-84
2023/08/12 07:10:40;;;;;;;1.25;0.70;;;;;;;22.93;47.41;100254.59;4446167;32;32900;-83
2023/08/12 07:13:09;;;;;;;0.70;0.57;;;;;;;23.08;46.91;100249.41;4443069;32;32874;-84
2023/08/12 07:15:38;;;;;;;1.50;0.85;;;;;;;23.23;46.21;100253.81;4450696;32;34029;-84
2023/08/12 07:18:07;;;;;;;0.95;0.40;;;;;;;23.07;46.83;100253.81;4446140;32;33627;-85
2023/08/12 07:20:35;;;;;;;1.10;0.50;;;;;;;22.95;47.04;100252.72;4445421;32;34767;-84
2023/08/12 07:23:06;;;;;;;0.37;0.37;;;;;;;23.17;46.84;100251.50;4445519;32;33684;-85
2023/08/12 07:25:36;;;;;;;0.90;0.60;;;;;;;23.47;45.97;100248.06;4449829;32;34612;-83
2023/08/12 07:28:06;;;;;;;0.68;0.37;;;;;;;23.36;46.35;100253.97;4445753;32;33438;-84
2023/08/12 07:30:36;;;;;;;2.30;0.77;;;;;;;23.13;45.82;100250.00;4444687;32;35269;-84
2023/08/12 07:33:05;;;;;;;0.57;0.47;;;;;;;23.21;45.53;100247.75;4441355;32;34669;-83
2023/08/12 07:35:35;;;;;;;1.20;0.57;;;;;;;22.98;46.13;100251.72;4450218;32;34632;-84
2023/08/12 07:38:04;;;;;;;1.12;0.70;;;;;;;23.34;45.75;100254.09;4450455;32;34541;-84
2023/08/12 07:40:32;;;;;;;0.50;0.50;;;;;;;23.50;46.07;100261.13;4444375;32;33532;-84
2023/08/12 07:43:03;;;;;;;1.27;0.75;;;;;;;23.61;45.44;100253.44;4444139;32;33035;-84
2023/08/12 07:45:32;;;;;;;3.72;0.45;;;;;;;23.38;45.20;100252.94;4443245;32;33086;-85
2023/08/12 07:48:01;;;;;;;0.98;0.50;;;;;;;23.91;44.77;100250.78;4448938;32;33730;-85
2023/08/12 07:50:30;;;;;;;0.60;0.60;;;;;;;23.64;44.64;100254.09;4443980;32;33829;-84
2023/08/12 07:52:59;;;;;;;0.75;0.50;;;;;;;24.02;44.02;100251.00;4443795;32;33011;-84
2023/08/12 07:55:29;;;;;;;1.52;0.70;;;;;;;24.21;43.58;100250.75;4443706;32;33940;-85
2023/08/12 07:57:58;;;;;;;1.15;0.80;;;;;;;24.23;43.89;100248.81;4448514;32;33072;-85
2023/08/12 08:00:28;;;;;;;1.37;0.70;;;;;;;24.45;43.66;100248.38;4443760;32;33894;-84
2023/08/12 08:02:57;;;;;;;1.20;0.82;;;;;;;24.47;43.05;100243.00;4439497;32;33457;-84
2023/08/12 08:05:26;;;;;;;0.50;0.40;;;;;;;24.52;43.37;100240.91;4428601;32;33676;-85
2023/08/12 08:07:55;;;;;;;1.45;1.05;;;;;;;24.20;44.25;100251.66;4436896;32;34667;-83
2023/08/12 08:10:24;;;;;;;1.17;0.60;;;;;;;24.49;43.67;100241.94;4441873;32;34212;-84
2023/08/12 08:12:53;;;;;;;1.08;0.50;;;;;;;24.56;43.93;100244.22;4439956;32;33527;-85
2023/08/12 08:15:21;;;;;;;0.40;0.40;;;;;;;24.84;42.60;100240.66;4441592;32;33269;-85
2023/08/12 08:17:52;;;;;;;1.02;0.55;;;;;;;24.99;43.11;100239.69;4444018;32;33532;-83
2023/08/12 08:20:23;;;;;;;0.32;0.32;;;;;;;25.01;43.14;100240.47;4450013;32;33943;-85
2023/08/12 08:22:55;;;;;;;0.80;0.52;;;;;;;25.19;42.75;100246.41;4441427;32;33668;-85
2023/08/12 08:25:23;;;;;;;0.95;0.47;;;;;;;25.23;42.38;100242.59;4444161;32;34195;-85
2023/08/12 08:27:54;;;;;;;1.23;0.80;;;;;;;25.12;43.00;100239.75;4444436;32;34171;-84
2023/08/12 08:30:24;;;;;;;0.30;0.30;;;;;;;25.38;42.87;100245.22;4443201;32;33866;-84
2023/08/12 08:32:54;;;;;;;0.37;0.37;;;;;;;25.58;42.63;100242.06;4447886;32;33376;-84
2023/08/12 08:35:23;;;;;;;0.85;0.40;;;;;;;25.72;42.25;100241.13;4441711;32;34431;-85
2023/08/12 08:37:52;;;;;;;1.50;0.80;;;;;;;25.51;42.37;100240.75;4438072;32;33552;-85
2023/08/12 08:40:21;;;;;;;0.30;0.30;;;;;;;25.51;42.22;100236.28;4444403;32;33640;-85
2023/08/12 08:42:53;;;;;;;1.20;0.62;;;;;;;25.65;41.32;100240.69;4449136;32;32932;-85
2023/08/12 08:45:23;;;;;;;0.57;0.40;;;;;;;25.71;40.45;100242.09;4443828;32;33191;-84
2023/08/12 08:47:53;;;;;;;0.68;0.55;;;;;;;25.59;41.09;100240.25;4444393;32;34297;-85
2023/08/12 08:50:23;;;;;;;0.65;0.40;;;;;;;25.53;41.24;100241.50;4444381;32;34122;-84
2023/08/12 08:52:52;;;;;;;0.62;0.50;;;;;;;25.11;42.59;100236.25;4429804;32;32749;-84
2023/08/12 08:55:21;;;;;;;0.60;0.40;;;;;;;25.66;41.49;100233.56;4447097;32;34353;-83
2023/08/12 08:57:51;;;;;;;0.80;0.73;;;;;;;25.83;41.92;100241.28;4443287;32;33559;-84
2023/08/12 09:00:20;;;;;;;0.55;0.55;;;;;;;25.72;42.61;100238.47;4441255;32;34255;-84
2023/08/12 09:02:49;;;;;;;1.35;0.45;;;;;;;25.98;40.91;100234.09;4439730;32;33787;-84
2023/08/12 09:05:21;;;;;;;0.30;0.30;;;;;;;26.28;41.05;100235.56;4442259;32;34411;-84
2023/08/12 09:07:51;;;;;;;0.30;0.30;;;;;;;26.13;41.87;100233.00;4442678;32;33873;-84
2023/08/12 09:10:22;;;;;;;0.30;0.30;;;;;;;25.93;41.57;100236.22;4441780;32;34879;-84
2023/08/12 09:12:52;;;;;;;;;;;;;;;26.42;41.05;100229.28;4444914;32;33957;-84
2023/08/12 09:15:21;;;;;;;0.60;0.60;;;;;;;26.45;40.37;100226.41;4443434;32;34877;-84
2023/08/12 09:17:50;;;;;;;1.17;0.40;;;;;;;25.80;41.49;100232.63;4452190;32;33501;-84
2023/08/12 09:20:20;;;;;;;0.57;0.40;;;;;;;26.33;40.16;100220.97;4445105;32;34246;-84
2023/08/12 09:22:58;;;;;;;0.52;0.40;;;;;;;26.34;40.19;100225.34;4444756;32;32047;-83
2023/08/12 09:25:29;;;;;;;0.75;0.75;;;;;;;26.70;39.85;100218.41;4442463;32;34378;-85
2023/08/12 09:28:00;;;;;;;1.30;0.88;;;;;;;25.98;40.42;100222.59;4448930;32;34758;-86
2023/08/12 09:30:32;;;;;;;3.40;0.65;;;;;;;26.55;38.73;100216.81;4444104;32;33625;-84
2023/08/12 09:33:03;;;;;;;0.30;0.30;;;;;;;26.23;39.04;100219.94;4443792;32;34136;-84
2023/08/12 09:35:35;;;;;;;0.77;0.62;;;;;;;26.84;37.79;100211.22;4443369;32;33784;-84
2023/08/12 09:38:05;;;;;;;0.80;0.60;;;;;;;26.88;38.72;100216.19;4446830;32;33999;-84
2023/08/12 09:40:35;;;;;;;2.12;1.00;;;;;;;27.11;40.05;100213.66;4451211;32;34497;-84
2023/08/12 09:43:05;;;;;;;0.65;0.40;;;;;;;27.40;37.35;100206.19;4446839;32;33386;-84
2023/08/12 09:45:35;;;;;;;2.08;0.65;;;;;;;27.44;38.27;100205.84;4442821;32;35884;-85
2023/08/12 09:48:05;;;;;;;0.90;0.50;;;;;;;27.59;38.01;100202.97;4443611;32;34595;-84
2023/08/12 09:50:39;;;;;;;1.23;0.50;;;;;;;27.74;37.70;100200.94;4445239;32;34527;-85
2023/08/12 09:53:08;;;;;;;6.47;1.58;;;;;;;27.97;39.09;100200.06;4445617;32;33753;-84
2023/08/12 09:55:37;;;;;;;1.27;0.60;;;;;;;28.18;37.72;100202.03;4447079;32;33129;-83
2023/08/12 09:58:07;;;;;;;0.80;0.45;;;;;;;28.29;36.90;100196.69;4446110;32;33609;-84
2023/08/12 10:00:37;;;;;;;0.52;0.52;;;;;;;28.37;35.42;100190.75;4442959;32;34052;-84
2023/08/12 10:03:06;;;;;;;0.90;0.50;;;;;;;27.91;34.98;100192.56;4452292;32;33002;-84
2023/08/12 10:05:36;;;;;;;1.55;0.77;;;;;;;28.50;35.60;100189.66;4446949;32;33752;-84
2023/08/12 10:08:05;;;;;;;0.50;0.40;;;;;;;28.36;36.26;100187.22;4447245;32;33136;-84
2023/08/12 10:10:36;;;;;;;0.52;0.40;;;;;;;28.91;34.97;100182.78;4443421;32;34249;-84
2023/08/12 10:13:07;;;;;;;;;;;;;;;29.13;35.17;100178.38;4448924;32;33342;-84
2023/08/12 10:15:37;;;;;;;0.10;0.10;;;;;;;29.11;34.88;100183.84;4447430;32;33810;-83
2023/08/12 10:18:06;;;;;;;0.40;0.20;;;;;;;29.31;32.14;100175.97;4446505;32;34815;-84
2023/08/12 10:20:41;;;;;;;1.27;0.73;;;;;;;29.30;33.99;100180.47;4438195;32;33574;-84
2023/08/12 10:23:18;;;;;;;0.95;0.50;;;;;;;28.30;34.58;100177.88;4436404;32;33335;-84
2023/08/12 10:25:48;;;;;;;0.20;0.20;;;;;;;28.94;32.52;100185.19;4451587;32;35405;-84
2023/08/12 10:28:19;;;;;;;0.32;0.10;;;;;;;28.83;33.34;100177.22;4443153;32;35339;-84
2023/08/12 10:30:48;;;;;;;0.43;0.37;;;;;;;28.76;33.95;100173.38;4440935;32;33541;-84
2023/08/12 10:33:18;;;;;;;0.82;0.37;;;;;;;28.49;34.59;100179.13;4440050;32;32690;-85
2023/08/12 10:35:49;;;;;;;1.62;0.62;;;;;;;28.57;35.44;100176.69;4445557;32;33713;-84
2023/08/12 10:38:20;;;;;;;0.52;0.30;;;;;;;28.37;34.23;100175.59;4451324;32;33988;-84
2023/08/12 10:40:49;;;;;;;0.80;0.43;;;;;;;27.75;35.28;100173.34;4444997;32;33084;-84
2023/08/12 10:43:17;;;;;;;1.08;0.68;;;;;;;28.24;34.36;100169.53;4444670;32;34005;-83
2023/08/12 10:45:50;;;;;;;0.77;0.50;;;;;;;28.30;34.72;100171.72;4444961;32;33664;-84
2023/08/12 10:48:21;;;;;;;0.57;0.50;;;;;;;28.21;35.63;100172.44;4450688;32;33222;-83
2023/08/12 10:50:59;;;;;;;0.40;0.37;;;;;;;28.26;34.28;100164.91;4445440;32;33604;-83
2023/08/12 10:53:31;;;;;;;0.73;0.50;;;;;;;28.06;34.39;100166.50;4446103;32;33367;-83
2023/08/12 10:56:02;;;;;;;0.62;0.40;;;;;;;28.08;33.59;100159.22;4447246;32;33606;-83
2023/08/12 10:58:45;;;;;;;0.75;0.60;;;;;;;27.73;34.99;100159.28;4447024;32;33118;-85
2023/08/12 11:01:18;;;;;;;0.15;0.15;;;;;;;28.28;33.78;100158.47;4451863;32;33559;-83
2023/08/12 11:03:48;;;;;;;0.95;0.60;;;;;;;28.15;33.64;100154.25;4437138;32;33069;-84
2023/08/12 11:06:20;;;;;;;1.17;0.43;;;;;;;27.32;35.85;100147.31;4446453;32;33113;-85
2023/08/12 11:08:53;;;;;;;0.30;0.20;;;;;;;27.91;34.24;100149.88;4446698;32;33408;-85
2023/08/12 11:11:23;;;;;;;0.90;0.57;;;;;;;27.82;34.46;100135.44;4446899;32;33415;-83
2023/08/12 11:13:54;;;;;;;0.40;0.40;;;;;;;28.44;33.12;100142.09;4451970;32;33898;-84
2023/08/12 11:16:32;;;;;;;0.37;0.30;;;;;;;28.20;34.46;100134.25;4446450;32;33473;-84
2023/08/12 11:19:01;;;;;;;0.47;0.35;;;;;;;28.58;34.48;100142.81;4446768;32;33747;-83
2023/08/12 11:21:32;;;;;;;0.30;0.30;;;;;;;29.07;32.61;100136.16;4446521;32;33070;-84
2023/08/12 11:24:01;;;;;;;1.25;0.40;;;;;;;28.66;33.04;100135.91;4446667;32;33397;-84
2023/08/12 11:26:29;;;;;;;0.30;0.30;;;;;;;29.18;32.11;100129.91;4452100;32;34468;-83
2023/08/12 11:28:58;;;;;;;1.25;0.40;;;;;;;29.16;31.52;100121.16;4446588;32;33740;-84
2023/08/12 11:31:28;;;;;;;0.20;0.20;;;;;;;29.22;32.94;100126.84;4446524;32;34760;-84
2023/08/12 11:33:57;;;;;;;0.45;0.22;;;;;;;29.12;31.00;100125.94;4446289;32;33209;-84
2023/08/12 11:36:26;;;;;;;0.37;0.30;;;;;;;29.29;31.13;100128.03;4451144;32;34270;-85
2023/08/12 11:38:57;;;;;;;0.50;0.40;;;;;;;29.02;31.90;100119.59;4446414;32;33539;-84